createdAt,value
2023-03-02T00:02:30.456Z,-0.97
2023-03-02T00:05:26.561Z,-0.95
2023-03-02T00:08:00.461Z,-0.93
2023-03-02T00:10:28.666Z,-0.93
2023-03-02T00:12:58.315Z,-0.93
2023-03-02T00:15:30.713Z,-0.95
2023-03-02T00:17:58.977Z,-0.98
2023-03-02T00:20:34.840Z,-1.01
2023-03-02T00:23:03.179Z,-1.04
2023-03-02T00:25:33.780Z,-1.09
2023-03-02T00:28:04.689Z,-1.13
2023-03-02T00:30:32.921Z,-1.16
2023-03-02T00:33:01.602Z,-1.20
2023-03-02T00:35:32.378Z,-1.24
2023-03-02T00:38:03.511Z,-1.27
2023-03-02T00:40:32.121Z,-1.29
2023-03-02T00:43:07.079Z,-1.31
2023-03-02T00:45:37.487Z,-1.31
2023-03-02T00:48:05.849Z,-1.30
2023-03-02T00:50:39.378Z,-1.32
2023-03-02T00:53:18.575Z,-1.31
2023-03-02T00:56:03.798Z,-1.30
2023-03-02T00:58:32.966Z,-1.31
2023-03-02T01:01:06.916Z,-1.31
2023-03-02T01:03:39.601Z,-1.30
2023-03-02T01:06:17.339Z,-1.31
2023-03-02T01:08:50.132Z,-1.32
2023-03-02T01:11:25.677Z,-1.32
2023-03-02T01:14:03.427Z,-1.33
2023-03-02T01:16:34.199Z,-1.35
2023-03-02T01:19:06.004Z,-1.36
2023-03-02T01:21:34.855Z,-1.38
2023-03-02T01:24:07.074Z,-1.40
2023-03-02T01:26:36.813Z,-1.43
2023-03-02T01:29:05.920Z,-1.45
2023-03-02T01:31:42.958Z,-1.48
2023-03-02T01:34:13.364Z,-1.52
2023-03-02T01:36:45.874Z,-1.57
2023-03-02T01:39:18.774Z,-1.63
2023-03-02T01:41:46.971Z,-1.67
2023-03-02T01:44:37.643Z,-1.71
2023-03-02T01:47:14.169Z,-1.74
2023-03-02T01:50:11.972Z,-1.76
2023-03-02T01:52:45.486Z,-1.79
2023-03-02T01:55:15.262Z,-1.80
2023-03-02T01:57:49.434Z,-1.83
2023-03-02T02:00:29.109Z,-1.86
2023-03-02T02:03:08.836Z,-1.90
2023-03-02T02:05:45.876Z,-1.92
2023-03-02T02:08:16.686Z,-1.94
2023-03-02T02:10:51.785Z,-1.97
2023-03-02T02:13:26.226Z,-2.00
2023-03-02T02:16:05.994Z,-2.02
2023-03-02T02:18:38.794Z,-2.05
2023-03-02T02:21:08.102Z,-2.06
2023-03-02T02:23:45.430Z,-2.06
2023-03-02T02:26:25.000Z,-2.10
2023-03-02T02:28:59.856Z,-2.13
2023-03-02T02:31:41.761Z,-2.15
2023-03-02T02:34:13.786Z,-2.18
2023-03-02T02:36:45.931Z,-2.21
2023-03-02T02:39:19.822Z,-2.23
2023-03-02T02:41:48.767Z,-2.25
2023-03-02T02:44:17.866Z,-2.27
2023-03-02T02:46:46.340Z,-2.30
2023-03-02T02:49:26.881Z,-2.33
2023-03-02T02:51:55.237Z,-2.35
2023-03-02T02:54:24.930Z,-2.36
2023-03-02T02:57:02.822Z,-2.36
2023-03-02T02:59:42.560Z,-2.34
2023-03-02T03:02:31.001Z,-2.34
2023-03-02T03:05:04.983Z,-2.36
2023-03-02T03:07:42.352Z,-2.38
2023-03-02T03:10:26.520Z,-2.40
2023-03-02T03:12:55.783Z,-2.43
2023-03-02T03:15:24.179Z,-2.45
2023-03-02T03:17:56.342Z,-2.47
2023-03-02T03:20:25.233Z,-2.48
2023-03-02T03:22:54.169Z,-2.51
2023-03-02T03:25:22.706Z,-2.56
2023-03-02T03:27:51.654Z,-2.60
2023-03-02T03:30:20.745Z,-2.61
2023-03-02T03:32:49.886Z,-2.63
2023-03-02T03:35:19.213Z,-2.64
2023-03-02T03:37:48.823Z,-2.66
2023-03-02T03:40:19.359Z,-2.67
2023-03-02T03:42:48.271Z,-2.70
2023-03-02T03:45:16.555Z,-2.72
2023-03-02T03:47:46.012Z,-2.73
2023-03-02T03:50:14.537Z,-2.73
2023-03-02T03:52:44.420Z,-2.72
2023-03-02T03:55:17.907Z,-2.72
2023-03-02T03:57:47.634Z,-2.72
2023-03-02T04:00:19.500Z,-2.72
2023-03-02T04:02:50.786Z,-2.71
2023-03-02T04:05:21.278Z,-2.69
2023-03-02T04:07:54.936Z,-2.67
2023-03-02T04:10:32.953Z,-2.65
2023-03-02T04:13:06.829Z,-2.65
2023-03-02T04:15:46.819Z,-2.66
2023-03-02T04:18:15.517Z,-2.67
2023-03-02T04:20:46.618Z,-2.70
2023-03-02T04:23:24.697Z,-2.69
2023-03-02T04:26:07.406Z,-2.70
2023-03-02T04:28:36.372Z,-2.72
2023-03-02T04:31:06.933Z,-2.76
2023-03-02T04:33:47.917Z,-2.79
2023-03-02T04:36:20.258Z,-2.81
2023-03-02T04:38:49.298Z,-2.81
2023-03-02T04:41:20.056Z,-2.80
2023-03-02T04:43:52.678Z,-2.80
2023-03-02T04:46:24.881Z,-2.79
2023-03-02T04:48:53.256Z,-2.78
2023-03-02T04:51:34.719Z,-2.78
2023-03-02T04:54:06.714Z,-2.77
2023-03-02T04:56:35.542Z,-2.76
2023-03-02T04:59:04.650Z,-2.74
2023-03-02T05:01:32.990Z,-2.71
2023-03-02T05:04:03.081Z,-2.65
2023-03-02T05:06:35.059Z,-2.60
2023-03-02T05:09:05.044Z,-2.55
2023-03-02T05:11:37.377Z,-2.53
2023-03-02T05:14:07.403Z,-2.51
2023-03-02T05:16:40.016Z,-2.51
2023-03-02T05:19:09.947Z,-2.49
2023-03-02T05:21:38.272Z,-2.47
2023-03-02T05:24:06.853Z,-2.44
2023-03-02T05:26:37.696Z,-2.40
2023-03-02T05:29:07.289Z,-2.38
2023-03-02T05:31:37.795Z,-2.35
2023-03-02T05:34:14.287Z,-2.31
2023-03-02T05:36:44.102Z,-2.27
2023-03-02T05:39:13.972Z,-2.24
2023-03-02T05:41:42.904Z,-2.20
2023-03-02T05:44:12.696Z,-2.15
2023-03-02T05:46:41.900Z,-2.08
2023-03-02T05:49:11.088Z,-2.01
2023-03-02T05:51:42.428Z,-1.93
2023-03-02T05:54:10.752Z,-1.86
2023-03-02T05:56:38.993Z,-1.79
2023-03-02T05:59:11.003Z,-1.70
2023-03-02T06:01:40.687Z,-1.63
2023-03-02T06:04:10.126Z,-1.56
2023-03-02T06:06:38.761Z,-1.50
2023-03-02T06:09:07.462Z,-1.45
2023-03-02T06:11:35.999Z,-1.39
2023-03-02T06:14:06.547Z,-1.32
2023-03-02T06:16:36.438Z,-1.28
2023-03-02T06:19:05.157Z,-1.26
2023-03-02T06:21:33.466Z,-1.22
2023-03-02T06:24:01.542Z,-1.17
2023-03-02T06:26:29.992Z,-1.11
2023-03-02T06:28:58.867Z,-1.06
2023-03-02T06:31:28.100Z,-1.00
2023-03-02T06:33:56.270Z,-0.94
2023-03-02T06:36:24.691Z,-0.86
2023-03-02T06:38:57.919Z,-0.78
2023-03-02T06:41:26.287Z,-0.72
2023-03-02T06:43:54.756Z,-0.65
2023-03-02T06:46:24.116Z,-0.55
2023-03-02T06:48:56.059Z,-0.47
2023-03-02T06:51:24.294Z,-0.41
2023-03-02T06:53:52.804Z,-0.34
2023-03-02T06:56:26.130Z,-0.28
2023-03-02T06:58:57.929Z,-0.20
2023-03-02T07:01:26.246Z,-0.10
2023-03-02T07:03:54.688Z,-0.01
2023-03-02T07:06:23.300Z,0.11
2023-03-02T07:08:51.836Z,0.21
2023-03-02T07:11:20.471Z,0.30
2023-03-02T07:13:48.982Z,0.38
2023-03-02T07:16:20.474Z,0.43
2023-03-02T07:18:59.116Z,0.49
2023-03-02T07:21:35.531Z,0.56
2023-03-02T07:24:04.028Z,0.64
2023-03-02T07:26:35.941Z,0.70
2023-03-02T07:29:04.648Z,0.76
2023-03-02T07:31:43.279Z,0.85
2023-03-02T07:34:15.108Z,0.95
2023-03-02T07:36:43.890Z,1.04
2023-03-02T07:39:16.490Z,1.13
2023-03-02T07:41:46.949Z,1.23
2023-03-02T07:44:15.541Z,1.30
2023-03-02T07:46:44.153Z,1.31
2023-03-02T07:49:13.089Z,1.32
2023-03-02T07:51:41.864Z,1.35
2023-03-02T07:54:10.235Z,1.42
2023-03-02T07:56:38.756Z,1.48
2023-03-02T07:59:07.392Z,1.57
2023-03-02T08:01:38.583Z,1.67
2023-03-02T08:04:08.407Z,1.73
2023-03-02T08:06:42.440Z,1.71
2023-03-02T08:09:11.698Z,1.75
2023-03-02T08:11:47.867Z,1.86
2023-03-02T08:14:20.193Z,1.98
2023-03-02T08:16:48.871Z,2.05
2023-03-02T08:19:19.928Z,2.16
2023-03-02T08:21:48.140Z,2.26
2023-03-02T08:24:22.985Z,2.36
2023-03-02T08:26:51.984Z,2.46
2023-03-02T08:29:20.079Z,2.55
2023-03-02T08:31:48.839Z,2.59
2023-03-02T08:34:16.916Z,2.68
2023-03-02T08:36:45.214Z,2.93
2023-03-02T08:39:13.466Z,3.33
2023-03-02T08:41:41.885Z,3.78
2023-03-02T08:44:10.255Z,4.21
2023-03-02T08:46:38.812Z,4.49
2023-03-02T08:49:07.640Z,4.81
2023-03-02T08:51:36.049Z,4.90
2023-03-02T08:54:07.289Z,4.95
2023-03-02T08:56:37.759Z,5.29
2023-03-02T08:59:12.691Z,5.77
2023-03-02T09:01:49.335Z,6.15
2023-03-02T09:04:21.500Z,6.67
2023-03-02T09:06:51.210Z,7.20
2023-03-02T09:09:19.414Z,7.26
2023-03-02T09:11:49.324Z,6.99
2023-03-02T09:14:19.483Z,7.00
2023-03-02T09:16:48.078Z,7.05
2023-03-02T09:19:16.301Z,7.11
2023-03-02T09:21:44.411Z,7.51
2023-03-02T09:24:16.345Z,7.81
2023-03-02T09:26:45.175Z,7.50
2023-03-02T09:29:13.750Z,7.59
2023-03-02T09:31:42.806Z,7.83
2023-03-02T09:34:12.076Z,7.87
2023-03-02T09:36:42.292Z,8.12
2023-03-02T09:39:12.691Z,8.41
2023-03-02T09:42:03.063Z,8.83
2023-03-02T09:44:35.286Z,9.48
2023-03-02T09:47:05.092Z,9.90
2023-03-02T09:49:39.999Z,10.39
2023-03-02T09:52:30.847Z,10.32
2023-03-02T09:55:29.139Z,9.76
2023-03-02T09:58:02.684Z,9.65
2023-03-02T10:00:37.196Z,10.13
2023-03-02T10:03:16.681Z,10.31
2023-03-02T10:05:47.007Z,10.17
2023-03-02T10:08:21.510Z,10.62
2023-03-02T10:11:00.113Z,10.92
2023-03-02T10:13:32.858Z,11.01
2023-03-02T10:16:16.530Z,11.15
2023-03-02T10:19:25.244Z,10.18
2023-03-02T10:22:03.606Z,10.27
2023-03-02T10:24:40.874Z,10.65
2023-03-02T10:27:35.109Z,10.92
2023-03-02T10:30:35.572Z,11.34
2023-03-02T10:33:12.495Z,11.73
2023-03-02T10:35:52.006Z,11.63
2023-03-02T10:38:22.937Z,11.73
2023-03-02T10:41:02.146Z,11.78
2023-03-02T10:43:42.822Z,11.49
2023-03-02T10:46:12.165Z,10.87
2023-03-02T10:48:53.291Z,10.62
2023-03-02T10:51:27.107Z,10.54
2023-03-02T10:54:14.291Z,10.87
2023-03-02T10:56:52.890Z,11.08
2023-03-02T10:59:43.421Z,11.29
2023-03-02T11:02:16.288Z,11.20
2023-03-02T11:04:44.841Z,10.78
2023-03-02T11:07:20.074Z,10.47
2023-03-02T11:10:18.297Z,10.46
2023-03-02T11:12:50.274Z,10.10
2023-03-02T11:15:32.628Z,10.31
2023-03-02T11:18:23.512Z,10.66
2023-03-02T11:20:58.022Z,10.79
2023-03-02T11:24:04.007Z,10.55
2023-03-02T11:26:36.262Z,10.63
2023-03-02T11:29:12.461Z,10.50
2023-03-02T11:31:48.992Z,10.52
2023-03-02T11:34:56.895Z,10.49
2023-03-02T11:37:43.765Z,10.13
2023-03-02T11:40:20.987Z,9.61
2023-03-02T11:42:49.236Z,9.73
2023-03-02T11:45:21.913Z,9.87
2023-03-02T11:48:08.177Z,10.11
2023-03-02T11:51:00.896Z,10.43
2023-03-02T11:53:44.133Z,10.86
2023-03-02T11:56:12.491Z,11.37
2023-03-02T11:58:43.422Z,11.51
2023-03-02T12:01:17.834Z,11.05
2023-03-02T12:03:46.272Z,10.74
2023-03-02T12:06:25.172Z,10.47
2023-03-02T12:08:55.730Z,10.53
2023-03-02T12:11:23.912Z,10.87
2023-03-02T12:13:52.060Z,10.98
2023-03-02T12:16:37.362Z,10.91
2023-03-02T12:19:24.924Z,10.74
2023-03-02T12:22:00.795Z,10.70
2023-03-02T12:24:36.037Z,10.45
2023-03-02T12:27:25.857Z,10.14
2023-03-02T12:30:12.184Z,10.20
2023-03-02T12:32:40.508Z,10.08
2023-03-02T12:35:15.793Z,10.00
2023-03-02T12:38:05.984Z,10.05
2023-03-02T12:40:45.689Z,10.02
2023-03-02T12:43:32.370Z,9.56
2023-03-02T12:46:19.660Z,9.28
2023-03-02T12:49:20.620Z,9.34
2023-03-02T12:52:01.173Z,9.30
2023-03-02T12:54:30.580Z,9.41
2023-03-02T12:57:18.345Z,9.58
2023-03-02T12:59:53.897Z,9.66
2023-03-02T13:02:29.892Z,9.77
2023-03-02T13:04:59.822Z,9.88
2023-03-02T13:07:35.481Z,10.15
2023-03-02T13:10:08.974Z,10.09
2023-03-02T13:12:37.979Z,9.83
2023-03-02T13:15:14.002Z,9.65
2023-03-02T13:17:42.335Z,9.41
2023-03-02T13:20:13.119Z,9.29
2023-03-02T13:22:43.359Z,9.25
2023-03-02T13:25:24.003Z,9.34
2023-03-02T13:27:58.017Z,9.56
2023-03-02T13:31:03.160Z,9.98
2023-03-02T13:33:32.514Z,10.30
2023-03-02T13:36:00.900Z,10.63
2023-03-02T13:38:38.600Z,10.84
2023-03-02T13:41:08.873Z,10.93
2023-03-02T13:43:44.428Z,10.74
2023-03-02T13:46:16.894Z,10.29
2023-03-02T13:49:14.479Z,10.16
2023-03-02T13:51:45.518Z,10.13
2023-03-02T13:54:22.300Z,10.27
2023-03-02T13:56:51.347Z,10.09
2023-03-02T13:59:22.054Z,10.07
2023-03-02T14:01:50.796Z,10.46
2023-03-02T14:04:23.207Z,10.84
2023-03-02T14:06:53.688Z,10.79
2023-03-02T14:09:22.107Z,10.89
2023-03-02T14:11:53.839Z,11.06
2023-03-02T14:14:23.848Z,10.69
2023-03-02T14:16:52.119Z,10.06
2023-03-02T14:19:20.710Z,9.77
2023-03-02T14:21:48.917Z,9.79
2023-03-02T14:24:21.976Z,9.75
2023-03-02T14:26:50.311Z,10.05
2023-03-02T14:29:25.011Z,10.34
2023-03-02T14:32:00.423Z,10.48
2023-03-02T14:34:29.534Z,10.50
2023-03-02T14:36:59.371Z,10.28
2023-03-02T14:39:39.284Z,10.00
2023-03-02T14:42:15.682Z,10.09
2023-03-02T14:44:53.377Z,10.01
2023-03-02T14:47:22.085Z,10.01
2023-03-02T14:49:50.860Z,10.14
2023-03-02T14:52:28.425Z,9.95
2023-03-02T14:58:18.390Z,9.34
2023-03-02T15:00:46.799Z,9.33
2023-03-02T15:03:19.463Z,9.28
2023-03-02T15:06:00.358Z,8.93
2023-03-02T15:08:31.935Z,8.28
2023-03-02T15:11:00.721Z,7.75
2023-03-02T15:13:34.583Z,7.24
2023-03-02T15:16:03.642Z,6.87
2023-03-02T15:18:32.202Z,6.58
2023-03-02T15:21:01.637Z,6.35
2023-03-02T15:23:30.290Z,6.13
2023-03-02T15:26:04.847Z,5.92
2023-03-02T15:28:32.925Z,5.75
2023-03-02T15:31:13.411Z,5.60
2023-03-02T15:33:41.806Z,5.46
2023-03-02T15:36:10.224Z,5.31
2023-03-02T15:38:39.318Z,5.16
2023-03-02T15:41:12.447Z,5.05
2023-03-02T15:43:45.459Z,4.91
2023-03-02T15:46:13.624Z,4.84
2023-03-02T15:48:47.039Z,4.78
2023-03-02T15:51:15.757Z,4.75
2023-03-02T15:53:44.331Z,4.70
2023-03-02T15:56:15.079Z,4.67
2023-03-02T15:58:47.624Z,4.64
2023-03-02T16:01:16.355Z,4.62
2023-03-02T16:03:49.647Z,4.59
2023-03-02T16:06:17.839Z,4.59
2023-03-02T16:08:46.023Z,4.57
2023-03-02T16:11:18.777Z,4.56
2023-03-02T16:13:47.149Z,4.55
2023-03-02T16:16:15.541Z,4.54
2023-03-02T16:18:58.368Z,4.50
2023-03-02T16:21:28.560Z,4.43
2023-03-02T16:24:04.048Z,4.35
2023-03-02T16:26:34.688Z,4.26
2023-03-02T16:29:03.569Z,4.17
2023-03-02T16:31:37.795Z,4.10
2023-03-02T16:34:09.684Z,4.03
2023-03-02T16:36:39.237Z,3.97
2023-03-02T16:39:08.184Z,3.91
2023-03-02T16:41:36.886Z,3.86
2023-03-02T16:44:05.419Z,3.80
2023-03-02T16:46:37.516Z,3.73
2023-03-02T16:49:25.388Z,3.66
2023-03-02T16:51:57.841Z,3.62
2023-03-02T16:54:26.075Z,3.56
2023-03-02T16:56:54.867Z,3.49
2023-03-02T16:59:25.830Z,3.46
2023-03-02T17:01:54.514Z,3.44
2023-03-02T17:04:22.726Z,3.39
2023-03-02T17:07:00.560Z,3.32
2023-03-02T17:09:29.615Z,3.27
2023-03-02T17:11:57.802Z,3.22
2023-03-02T17:14:26.507Z,3.20
2023-03-02T17:16:57.230Z,3.17
2023-03-02T17:19:27.080Z,3.13
2023-03-02T17:21:59.345Z,3.08
2023-03-02T17:24:35.932Z,3.02
2023-03-02T17:27:13.115Z,2.98
2023-03-02T17:29:49.040Z,2.95
2023-03-02T17:32:17.699Z,2.90
2023-03-02T17:34:47.850Z,2.84
2023-03-02T17:37:17.684Z,2.81
2023-03-02T17:39:46.243Z,2.77
2023-03-02T17:42:14.288Z,2.69
2023-03-02T17:44:43.933Z,2.63
2023-03-02T17:47:14.660Z,2.56
2023-03-02T17:49:45.809Z,2.49
2023-03-02T17:52:18.982Z,2.43
2023-03-02T17:54:47.555Z,2.38
2023-03-02T17:57:21.883Z,2.32
2023-03-02T17:59:50.657Z,2.26
2023-03-02T18:02:18.938Z,2.23
2023-03-02T18:04:47.428Z,2.19
2023-03-02T18:07:15.874Z,2.14
2023-03-02T18:09:45.122Z,2.09
2023-03-02T18:12:13.438Z,2.05
2023-03-02T18:14:41.579Z,2.01
2023-03-02T18:17:12.496Z,1.97
2023-03-02T18:19:42.469Z,1.94
2023-03-02T18:22:10.517Z,1.91
2023-03-02T18:24:38.724Z,1.86
2023-03-02T18:27:12.814Z,1.79
2023-03-02T18:29:41.107Z,1.71
2023-03-02T18:32:10.620Z,1.65
2023-03-02T18:34:40.681Z,1.58
2023-03-02T18:37:09.466Z,1.51
2023-03-02T18:39:40.459Z,1.48
2023-03-02T18:42:09.265Z,1.46
2023-03-02T18:44:38.867Z,1.45
2023-03-02T18:47:08.796Z,1.44
2023-03-02T18:49:40.633Z,1.44
2023-03-02T18:52:09.897Z,1.42
2023-03-02T18:54:38.989Z,1.38
2023-03-02T18:57:09.051Z,1.32
2023-03-02T18:59:38.412Z,1.27
2023-03-02T19:02:08.334Z,1.22
2023-03-02T19:04:50.347Z,1.18
2023-03-02T19:07:22.658Z,1.14
2023-03-02T19:09:50.687Z,1.11
2023-03-02T19:12:22.125Z,1.08
2023-03-02T19:14:50.758Z,1.06
2023-03-02T19:17:19.080Z,1.04
2023-03-02T19:19:50.934Z,1.00
2023-03-02T19:22:22.595Z,0.98
2023-03-02T19:24:50.940Z,0.95
2023-03-02T19:27:19.158Z,0.93
2023-03-02T19:29:48.716Z,0.90
2023-03-02T19:32:16.839Z,0.87
2023-03-02T19:34:45.565Z,0.83
2023-03-02T19:37:13.923Z,0.80
2023-03-02T19:39:44.494Z,0.76
2023-03-02T19:42:12.644Z,0.72
2023-03-02T19:44:41.932Z,0.68
2023-03-02T19:47:09.948Z,0.63
2023-03-02T19:49:38.012Z,0.59
2023-03-02T19:52:11.663Z,0.54
2023-03-02T19:54:45.918Z,0.51
2023-03-02T19:57:14.039Z,0.47
2023-03-02T19:59:45.476Z,0.44
2023-03-02T20:02:15.427Z,0.41
2023-03-02T20:04:45.356Z,0.38
2023-03-02T20:07:13.949Z,0.36
2023-03-02T20:09:46.309Z,0.36
2023-03-02T20:12:15.918Z,0.39
2023-03-02T20:14:52.736Z,0.42
2023-03-02T20:17:23.383Z,0.44
2023-03-02T20:19:54.339Z,0.45
2023-03-02T20:22:25.966Z,0.47
2023-03-02T20:24:57.059Z,0.48
2023-03-02T20:27:27.929Z,0.49
2023-03-02T20:29:56.097Z,0.50
2023-03-02T20:32:25.558Z,0.51
2023-03-02T20:34:53.681Z,0.51
2023-03-02T20:37:24.560Z,0.51
2023-03-02T20:39:54.446Z,0.49
2023-03-02T20:42:27.523Z,0.47
2023-03-02T20:44:56.659Z,0.45
2023-03-02T20:47:24.824Z,0.42
2023-03-02T20:50:00.055Z,0.38
2023-03-02T20:52:31.278Z,0.33
2023-03-02T20:54:59.458Z,0.31
2023-03-02T20:57:28.215Z,0.29
2023-03-02T20:59:57.481Z,0.25
2023-03-02T21:02:26.677Z,0.21
2023-03-02T21:04:55.407Z,0.17
2023-03-02T21:07:24.109Z,0.13
2023-03-02T21:09:52.386Z,0.08
2023-03-02T21:12:24.233Z,0.03
2023-03-02T21:14:54.255Z,-0.01
2023-03-02T21:17:24.457Z,-0.05
2023-03-02T21:19:53.289Z,-0.09
2023-03-02T21:22:21.644Z,-0.13
2023-03-02T21:24:53.045Z,-0.15
2023-03-02T21:27:21.708Z,-0.17
2023-03-02T21:29:49.839Z,-0.19
2023-03-02T21:32:17.962Z,-0.17
2023-03-02T21:34:46.443Z,-0.16
2023-03-02T21:37:14.562Z,-0.14
2023-03-02T21:39:42.888Z,-0.15
2023-03-02T21:42:14.074Z,-0.15
2023-03-02T21:44:43.826Z,-0.17
2023-03-02T21:47:11.885Z,-0.17
2023-03-02T21:49:41.126Z,-0.16
2023-03-02T21:52:09.591Z,-0.15
2023-03-02T21:54:38.514Z,-0.16
2023-03-02T21:57:08.440Z,-0.17
2023-03-02T21:59:37.435Z,-0.18
2023-03-02T22:02:05.712Z,-0.18
2023-03-02T22:04:37.542Z,-0.17
2023-03-02T22:07:05.911Z,-0.16
2023-03-02T22:09:34.079Z,-0.14
2023-03-02T22:12:12.013Z,-0.11
2023-03-02T22:14:40.498Z,-0.09
2023-03-02T22:17:16.783Z,-0.05
2023-03-02T22:19:45.578Z,-0.03
2023-03-02T22:22:22.413Z,0.01
2023-03-02T22:24:53.740Z,0.04
2023-03-02T22:27:24.348Z,0.06
2023-03-02T22:29:56.692Z,0.07
2023-03-02T22:32:35.580Z,0.08
2023-03-02T22:35:26.284Z,0.09
2023-03-02T22:38:07.434Z,0.10
2023-03-02T22:40:35.801Z,0.12
2023-03-02T22:43:22.990Z,0.13
2023-03-02T22:45:54.153Z,0.14
2023-03-02T22:48:23.244Z,0.15
2023-03-02T22:50:51.567Z,0.18
2023-03-02T22:53:24.462Z,0.21
2023-03-02T22:56:00.344Z,0.23
2023-03-02T22:58:48.509Z,0.24
2023-03-02T23:01:27.899Z,0.26
2023-03-02T23:04:01.978Z,0.27
2023-03-02T23:06:31.841Z,0.29
2023-03-02T23:09:04.179Z,0.31
2023-03-02T23:11:38.903Z,0.31
2023-03-02T23:14:26.083Z,0.31
2023-03-02T23:17:02.568Z,0.33
2023-03-02T23:19:31.051Z,0.33
2023-03-02T23:21:59.394Z,0.33
2023-03-02T23:24:28.077Z,0.34
2023-03-02T23:26:57.533Z,0.34
2023-03-02T23:29:45.469Z,0.33
2023-03-02T23:32:13.943Z,0.33
2023-03-02T23:34:42.289Z,0.33
2023-03-02T23:37:13.078Z,0.34
2023-03-02T23:39:41.469Z,0.33
2023-03-02T23:42:09.659Z,0.32
2023-03-02T23:44:40.760Z,0.32
2023-03-02T23:47:12.237Z,0.33
2023-03-02T23:49:44.345Z,0.33
2023-03-02T23:52:12.541Z,0.33
2023-03-02T23:54:42.191Z,0.33
2023-03-02T23:57:10.558Z,0.35
2023-03-02T23:59:38.922Z,0.37
